This is the latest recevied weather packets stored in our database for station/object SP6KBU-8. If no packets are shown the sender has not sent any weather packets the latest 10 day(s).
| Time | Temp. | Humidity | Pressure | Rain* | Wind** | Luminosity | Snow |
|---|---|---|---|---|---|---|---|
| 1777534848 | 11.67° C | 28% | 1033.2 hPa | - | - | - | - |
| 1777533948 | 11.11° C | 28% | 1033.2 hPa | - | - | - | - |
| 1777533049 | 10.56° C | 28% | 1033.2 hPa | - | - | - | - |
| 1777532151 | 11.11° C | 29% | 1033.3 hPa | - | - | - | - |
| 1777531252 | 10.56° C | 30% | 1033.3 hPa | - | - | - | - |
| 1777530354 | 11.67° C | 27% | 1033.3 hPa | - | - | - | - |
| 1777529456 | 10.56° C | 31% | 1033.3 hPa | - | - | - | - |
| 1777528557 | 8.89° C | 39% | 1033.3 hPa | - | - | - | - |
| 1777527658 | 7.22° C | 43% | 1033.3 hPa | - | - | - | - |
| 1777526761 | 5.56° C | 46% | 1033.3 hPa | - | - | - | - |
| 1777525863 | 3.89° C | 50% | 1033.3 hPa | - | - | - | - |
| 1777524963 | 2.78° C | 53% | 1033.3 hPa | - | - | - | - |
| 1777524066 | 1.67° C | 58% | 1033.3 hPa | - | - | - | - |
| 1777523166 | 0° C | 62% | 1033.2 hPa | - | - | - | - |
| 1777521367 | -1.11° C | 65% | 1033.3 hPa | - | - | - | - |
| 1777520469 | -1.11° C | 64% | 1033.3 hPa | - | - | - | - |
| 1777518671 | -1.11° C | 63% | 1033.1 hPa | - | - | - | - |
| 1777517772 | -0.56° C | 63% | 1033.1 hPa | - | - | - | - |
| 1777515977 | -0.56° C | 63% | 1032.9 hPa | - | - | - | - |
| 1777514175 | -0.56° C | 62% | 1032.9 hPa | - | - | - | - |
| 1777513277 | -0.56° C | 62% | 1032.8 hPa | - | - | - | - |
| 1777512378 | -0.56° C | 62% | 1032.7 hPa | - | - | - | - |
| 1777511481 | -0.56° C | 62% | 1032.6 hPa | - | - | - | - |
| 1777510581 | -0.56° C | 62% | 1032.5 hPa | - | - | - | - |
| 1777509683 | -0.56° C | 62% | 1032.5 hPa | - | - | - | - |
* Rain since midnight (hover to see other rain measurements)
** Current wind speed in m/s (hover to see current wind gust speed)